createdAt,value
2022-12-20T00:01:31.205Z,3.15
2022-12-20T00:04:02.324Z,1.75
2022-12-20T00:06:30.349Z,1.85
2022-12-20T00:09:00.421Z,1.80
2022-12-20T00:11:29.908Z,1.85
2022-12-20T00:13:59.370Z,2.15
2022-12-20T00:16:29.442Z,1.90
2022-12-20T00:18:59.708Z,1.88
2022-12-20T00:21:28.583Z,1.50
2022-12-20T00:23:56.899Z,1.75
2022-12-20T00:26:27.848Z,1.40
2022-12-20T00:28:55.820Z,1.80
2022-12-20T00:31:24.744Z,2.05
2022-12-20T00:33:54.642Z,1.48
2022-12-20T00:36:23.812Z,1.23
2022-12-20T00:38:53.824Z,1.40
2022-12-20T00:41:27.361Z,1.73
2022-12-20T00:43:55.537Z,1.70
2022-12-20T00:46:24.614Z,1.65
2022-12-20T00:48:52.481Z,1.90
2022-12-20T00:51:23.130Z,2.55
2022-12-20T00:53:51.054Z,1.70
2022-12-20T00:56:19.412Z,1.55
2022-12-20T00:58:46.989Z,1.30
2022-12-20T01:01:30.378Z,1.40
2022-12-20T01:03:58.588Z,1.30
2022-12-20T01:06:26.293Z,1.15
2022-12-20T01:08:55.671Z,1.88
2022-12-20T01:11:28.666Z,1.55
2022-12-20T01:13:58.414Z,1.80
2022-12-20T01:16:29.686Z,1.63
2022-12-20T01:18:57.316Z,1.63
2022-12-20T01:21:27.323Z,1.50
2022-12-20T01:23:55.613Z,1.73
2022-12-20T01:26:26.012Z,1.48
2022-12-20T01:28:55.932Z,1.40
2022-12-20T01:31:24.441Z,1.92
2022-12-20T01:33:52.823Z,1.75
2022-12-20T01:36:25.222Z,1.92
2022-12-20T01:38:57.314Z,1.50
2022-12-20T01:41:24.868Z,2.60
2022-12-20T01:43:55.298Z,1.60
2022-12-20T01:46:29.009Z,1.63
2022-12-20T01:49:14.017Z,1.58
2022-12-20T01:51:45.854Z,1.52
2022-12-20T01:54:31.752Z,1.95
2022-12-20T01:57:03.020Z,1.50
2022-12-20T01:59:32.822Z,1.95
2022-12-20T02:02:05.807Z,2.03
2022-12-20T02:04:33.436Z,1.65
2022-12-20T02:07:02.619Z,2.10
2022-12-20T02:09:31.992Z,1.65
2022-12-20T02:12:11.724Z,2.00
2022-12-20T02:15:12.724Z,1.83
2022-12-20T02:17:53.756Z,1.60
2022-12-20T02:20:40.183Z,2.03
2022-12-20T02:23:26.060Z,1.77
2022-12-20T02:26:14.800Z,1.73
2022-12-20T02:29:04.072Z,1.50
2022-12-20T02:31:38.820Z,1.25
2022-12-20T02:34:08.155Z,1.75
2022-12-20T02:36:35.738Z,1.95
2022-12-20T02:39:03.286Z,2.00
2022-12-20T02:41:40.860Z,1.60
2022-12-20T02:44:32.423Z,1.50
2022-12-20T02:47:03.926Z,1.50
2022-12-20T02:49:35.344Z,1.90
2022-12-20T02:52:04.686Z,1.45
2022-12-20T02:54:33.070Z,1.38
2022-12-20T02:57:13.216Z,1.70
2022-12-20T02:59:48.464Z,1.90
2022-12-20T03:02:16.871Z,1.92
2022-12-20T03:04:47.191Z,1.40
2022-12-20T03:07:16.637Z,1.40
2022-12-20T03:09:46.172Z,1.40
2022-12-20T03:12:16.016Z,1.50
2022-12-20T03:14:43.553Z,1.48
2022-12-20T03:17:11.896Z,1.55
2022-12-20T03:19:39.914Z,1.33
2022-12-20T03:22:07.508Z,1.42
2022-12-20T03:24:35.093Z,2.13
2022-12-20T03:27:02.596Z,2.13
2022-12-20T03:29:30.105Z,2.60
2022-12-20T03:31:57.609Z,1.75
2022-12-20T03:34:25.079Z,1.50
2022-12-20T03:36:52.588Z,1.73
2022-12-20T03:39:20.097Z,1.40
2022-12-20T03:41:47.667Z,1.95
2022-12-20T03:44:15.224Z,1.25
2022-12-20T03:46:42.879Z,1.40
2022-12-20T03:49:10.454Z,3.17
2022-12-20T03:51:37.950Z,1.67
2022-12-20T03:54:05.481Z,1.33
2022-12-20T03:56:32.981Z,1.90
2022-12-20T03:59:00.659Z,1.52
2022-12-20T04:01:30.364Z,1.83
2022-12-20T04:03:58.382Z,1.67
2022-12-20T04:06:25.915Z,1.75
2022-12-20T04:08:53.421Z,1.35
2022-12-20T04:11:20.996Z,1.30
2022-12-20T04:13:53.671Z,1.80
2022-12-20T04:16:24.215Z,1.40
2022-12-20T04:18:52.011Z,1.75
2022-12-20T04:21:28.178Z,1.75
2022-12-20T04:23:56.201Z,1.35
2022-12-20T04:26:24.095Z,1.30
2022-12-20T04:28:52.054Z,1.48
2022-12-20T04:31:23.770Z,1.30
2022-12-20T04:36:20.745Z,1.50
2022-12-20T04:38:48.325Z,1.35
2022-12-20T04:41:22.622Z,1.50
2022-12-20T04:43:55.445Z,1.33
2022-12-20T04:46:24.715Z,1.20
2022-12-20T04:48:58.269Z,1.65
2022-12-20T04:51:27.598Z,1.70
2022-12-20T04:53:54.750Z,1.20
2022-12-20T04:56:26.383Z,1.60
2022-12-20T04:58:55.588Z,1.55
2022-12-20T05:01:23.338Z,1.55
2022-12-20T05:03:51.485Z,1.50
2022-12-20T05:06:19.731Z,1.70
2022-12-20T05:08:47.694Z,1.90
2022-12-20T05:11:15.552Z,2.47
2022-12-20T05:13:43.223Z,1.80
2022-12-20T05:16:10.974Z,1.80
2022-12-20T05:18:44.509Z,2.38
2022-12-20T05:21:33.163Z,1.65
2022-12-20T05:24:18.004Z,1.88
2022-12-20T05:26:46.049Z,1.88
2022-12-20T05:29:13.559Z,1.88
2022-12-20T05:31:41.097Z,2.20
2022-12-20T05:34:08.639Z,1.55
2022-12-20T05:36:36.142Z,2.35
2022-12-20T05:39:04.739Z,1.55
2022-12-20T05:41:32.698Z,2.00
2022-12-20T05:44:00.484Z,2.20
2022-12-20T05:46:28.054Z,2.10
2022-12-20T05:48:55.656Z,2.35
2022-12-20T05:51:23.168Z,1.40
2022-12-20T05:53:50.742Z,2.45
2022-12-20T05:56:18.367Z,1.60
2022-12-20T05:58:45.865Z,1.48
2022-12-20T06:01:13.707Z,1.70
2022-12-20T06:03:41.580Z,1.48
2022-12-20T06:06:13.820Z,1.67
2022-12-20T06:08:41.981Z,2.03
2022-12-20T06:11:09.746Z,1.73
2022-12-20T06:13:37.487Z,1.65
2022-12-20T06:16:05.529Z,2.30
2022-12-20T06:18:33.237Z,1.73
2022-12-20T06:21:02.041Z,1.13
2022-12-20T06:23:29.686Z,1.38
2022-12-20T06:25:58.065Z,1.20
2022-12-20T06:28:25.740Z,1.40
2022-12-20T06:30:58.130Z,1.10
2022-12-20T06:35:54.268Z,1.13
2022-12-20T06:38:21.985Z,1.33
2022-12-20T06:40:49.703Z,1.55
2022-12-20T06:43:17.923Z,1.58
2022-12-20T06:45:45.800Z,1.10
2022-12-20T06:48:13.637Z,1.40
2022-12-20T06:50:41.331Z,1.88
2022-12-20T06:53:09.087Z,2.63
2022-12-20T06:55:37.016Z,1.20
2022-12-20T06:58:05.284Z,1.13
2022-12-20T07:00:33.518Z,1.20
2022-12-20T07:03:01.757Z,1.30
2022-12-20T07:05:29.601Z,1.08
2022-12-20T07:07:57.415Z,1.25
2022-12-20T07:10:25.184Z,1.20
2022-12-20T07:12:54.042Z,1.00
2022-12-20T07:15:22.230Z,1.92
2022-12-20T07:17:50.026Z,0.90
2022-12-20T07:20:17.876Z,1.33
2022-12-20T07:22:46.714Z,0.98
2022-12-20T07:25:14.686Z,1.00
2022-12-20T07:27:42.426Z,1.60
2022-12-20T07:30:10.504Z,1.02
2022-12-20T07:32:38.245Z,1.13
2022-12-20T07:35:06.160Z,1.15
2022-12-20T07:37:33.797Z,1.17
2022-12-20T07:40:01.536Z,1.10
2022-12-20T07:42:35.748Z,1.15
2022-12-20T07:45:06.059Z,0.90
2022-12-20T07:47:35.448Z,1.35
2022-12-20T07:50:03.647Z,1.77
2022-12-20T07:52:35.574Z,1.15
2022-12-20T07:55:06.539Z,0.85
2022-12-20T07:57:51.590Z,1.30
2022-12-20T08:00:19.829Z,2.17
2022-12-20T08:03:00.104Z,1.20
2022-12-20T08:05:28.453Z,1.00
2022-12-20T08:08:00.247Z,2.67
2022-12-20T08:10:28.661Z,1.33
2022-12-20T08:12:56.908Z,1.00
2022-12-20T08:15:25.105Z,1.00
2022-12-20T08:17:52.821Z,1.00
2022-12-20T08:20:20.812Z,1.40
2022-12-20T08:22:48.623Z,1.00
2022-12-20T08:25:16.675Z,1.45
2022-12-20T08:27:44.715Z,1.45
2022-12-20T08:30:12.842Z,1.30
2022-12-20T08:32:40.713Z,1.05
2022-12-20T08:35:10.005Z,2.17
2022-12-20T08:37:37.762Z,1.00
2022-12-20T08:40:07.752Z,1.20
2022-12-20T08:42:35.528Z,1.33
2022-12-20T08:45:03.358Z,1.35
2022-12-20T08:47:31.871Z,0.90
2022-12-20T08:49:59.689Z,1.00
2022-12-20T08:52:27.350Z,1.77
2022-12-20T08:54:55.097Z,1.20
2022-12-20T08:57:22.822Z,1.23
2022-12-20T08:59:52.500Z,1.50
2022-12-20T09:02:22.666Z,1.70
2022-12-20T09:04:50.570Z,1.35
2022-12-20T09:07:18.250Z,1.20
2022-12-20T09:09:47.925Z,1.30
2022-12-20T09:12:15.613Z,1.55
2022-12-20T09:14:43.279Z,1.73
2022-12-20T09:17:10.987Z,1.48
2022-12-20T09:19:38.717Z,1.98
2022-12-20T09:22:06.403Z,1.48
2022-12-20T09:24:34.149Z,1.35
2022-12-20T09:27:01.876Z,1.17
2022-12-20T09:29:35.279Z,1.52
2022-12-20T09:32:03.480Z,1.55
2022-12-20T09:34:31.142Z,1.70
2022-12-20T09:36:58.878Z,1.67
2022-12-20T09:39:26.597Z,1.50
2022-12-20T09:41:54.387Z,1.40
2022-12-20T09:44:28.474Z,1.88
2022-12-20T09:47:06.429Z,1.40
2022-12-20T09:49:42.423Z,1.58
2022-12-20T09:52:16.442Z,1.80
2022-12-20T09:54:50.104Z,2.35
2022-12-20T09:57:27.938Z,2.58
2022-12-20T09:59:58.126Z,1.63
2022-12-20T10:02:55.726Z,1.92
2022-12-20T10:05:40.522Z,2.58
2022-12-20T10:08:25.188Z,1.50
2022-12-20T10:10:57.620Z,4.93
2022-12-20T10:13:25.553Z,1.92
2022-12-20T10:16:25.949Z,1.35
2022-12-20T10:19:15.550Z,1.80
2022-12-20T10:21:54.090Z,1.88
2022-12-20T10:24:33.289Z,1.70
2022-12-20T10:27:29.263Z,1.77
2022-12-20T10:29:56.943Z,2.08
2022-12-20T10:32:27.882Z,1.55
2022-12-20T10:35:06.862Z,2.60
2022-12-20T10:37:34.514Z,2.80
2022-12-20T10:40:07.316Z,2.25
2022-12-20T10:42:43.267Z,2.92
2022-12-20T10:45:16.664Z,1.85
2022-12-20T10:47:47.390Z,2.35
2022-12-20T10:50:15.781Z,1.73
2022-12-20T10:52:44.190Z,2.53
2022-12-20T10:55:35.675Z,1.73
2022-12-20T10:58:23.029Z,1.55
2022-12-20T11:00:50.970Z,1.52
2022-12-20T11:03:22.112Z,2.00
2022-12-20T11:06:00.255Z,1.90
2022-12-20T11:08:44.804Z,3.38
2022-12-20T11:11:19.878Z,2.25
2022-12-20T11:13:48.232Z,3.33
2022-12-20T11:16:41.732Z,1.73
2022-12-20T11:19:12.121Z,2.88
2022-12-20T11:21:56.842Z,2.30
2022-12-20T11:24:59.599Z,2.92
2022-12-20T11:27:36.922Z,3.85
2022-12-20T11:30:20.241Z,2.60
2022-12-20T11:33:02.953Z,2.40
2022-12-20T11:35:43.720Z,2.28
2022-12-20T11:38:11.325Z,2.30
2022-12-20T11:40:48.700Z,3.08
2022-12-20T11:43:19.670Z,3.00
2022-12-20T11:45:53.080Z,2.67
2022-12-20T11:48:47.168Z,2.35
2022-12-20T11:51:26.939Z,3.42
2022-12-20T11:54:02.577Z,2.97
2022-12-20T11:56:45.182Z,3.53
2022-12-20T11:59:34.069Z,3.80
2022-12-20T12:02:26.173Z,2.88
2022-12-20T12:05:15.532Z,2.55
2022-12-20T12:07:48.934Z,2.83
2022-12-20T12:10:22.615Z,3.58
2022-12-20T12:13:17.700Z,3.50
2022-12-20T12:16:00.561Z,2.92
2022-12-20T12:18:33.841Z,4.28
2022-12-20T12:21:09.822Z,3.67
2022-12-20T12:23:55.718Z,3.42
2022-12-20T12:26:28.025Z,3.15
2022-12-20T12:31:35.339Z,3.65
2022-12-20T12:34:10.644Z,3.17
2022-12-20T12:37:06.057Z,3.55
2022-12-20T12:39:53.899Z,5.50
2022-12-20T12:42:30.552Z,4.88
2022-12-20T12:45:15.993Z,2.97
2022-12-20T12:47:49.722Z,3.20
2022-12-20T12:50:39.003Z,3.30
2022-12-20T12:53:13.859Z,3.83
2022-12-20T12:55:47.146Z,3.55
2022-12-20T12:58:23.867Z,3.40
2022-12-20T13:01:08.103Z,4.93
2022-12-20T13:03:53.304Z,4.32
2022-12-20T13:06:27.241Z,4.72
2022-12-20T13:08:58.288Z,3.53
2022-12-20T13:11:34.552Z,3.45
2022-12-20T13:14:24.227Z,4.55
2022-12-20T13:17:12.687Z,4.25
2022-12-20T13:19:51.935Z,5.15
2022-12-20T13:22:25.138Z,4.50
2022-12-20T13:25:04.271Z,3.97
2022-12-20T13:27:42.357Z,4.85
2022-12-20T13:30:10.464Z,3.83
2022-12-20T13:32:50.618Z,4.80
2022-12-20T13:35:28.000Z,3.30
2022-12-20T13:38:06.168Z,4.78
2022-12-20T13:40:51.604Z,4.35
2022-12-20T13:43:22.317Z,3.55
2022-12-20T13:46:13.289Z,4.35
2022-12-20T13:49:04.635Z,3.88
2022-12-20T13:51:32.902Z,4.35
2022-12-20T13:54:03.508Z,4.88
2022-12-20T13:56:50.081Z,4.25
2022-12-20T13:59:28.820Z,4.25
2022-12-20T14:01:59.579Z,3.67
2022-12-20T14:04:39.796Z,4.38
2022-12-20T14:07:08.180Z,4.07
2022-12-20T14:09:39.969Z,4.10
2022-12-20T14:12:19.510Z,4.50
2022-12-20T14:14:52.988Z,4.95
2022-12-20T14:17:32.941Z,5.18
2022-12-20T14:20:30.319Z,4.95
2022-12-20T14:23:04.285Z,4.60
2022-12-20T14:25:37.765Z,5.45
2022-12-20T14:28:06.193Z,4.70
2022-12-20T14:30:42.444Z,7.25
2022-12-20T14:33:43.236Z,6.50
2022-12-20T14:36:16.601Z,6.60
2022-12-20T14:38:52.426Z,6.55
2022-12-20T14:41:28.917Z,6.13
2022-12-20T14:43:58.099Z,6.60
2022-12-20T14:46:26.117Z,5.63
2022-12-20T14:49:28.064Z,6.22
2022-12-20T14:52:12.634Z,6.00
2022-12-20T14:57:52.019Z,6.30
2022-12-20T15:00:19.669Z,5.22
2022-12-20T15:02:51.012Z,6.68
2022-12-20T15:05:38.593Z,6.60
2022-12-20T15:08:33.382Z,7.18
2022-12-20T15:11:10.470Z,7.43
2022-12-20T15:13:39.613Z,7.03
2022-12-20T15:16:16.119Z,6.35
2022-12-20T15:18:43.881Z,6.97
2022-12-20T15:21:17.064Z,7.18
2022-12-20T15:23:53.661Z,7.50
2022-12-20T15:26:24.881Z,10.48
2022-12-20T15:28:53.327Z,7.32
2022-12-20T15:31:30.874Z,8.65
2022-12-20T15:34:02.534Z,8.35
2022-12-20T15:36:31.006Z,7.72
2022-12-20T15:39:15.695Z,9.02
2022-12-20T15:41:49.703Z,10.00
2022-12-20T15:44:25.723Z,8.50
2022-12-20T15:46:53.881Z,10.57
2022-12-20T15:49:23.890Z,9.10
2022-12-20T15:51:53.187Z,10.13
2022-12-20T15:54:35.850Z,8.55
2022-12-20T15:57:10.990Z,9.35
2022-12-20T16:02:29.023Z,9.02
2022-12-20T16:04:57.684Z,10.02
2022-12-20T16:07:25.705Z,9.38
2022-12-20T16:09:53.897Z,11.25
2022-12-20T16:12:29.378Z,10.23
2022-12-20T16:14:57.128Z,10.10
2022-12-20T16:17:25.085Z,11.05
2022-12-20T16:19:52.865Z,11.77
2022-12-20T16:22:23.207Z,10.77
2022-12-20T16:24:51.874Z,10.60
2022-12-20T16:27:20.366Z,11.55
2022-12-20T16:29:48.142Z,9.85
2022-12-20T16:32:17.560Z,11.00
2022-12-20T16:34:46.003Z,10.90
2022-12-20T16:37:14.186Z,10.00
2022-12-20T16:39:43.183Z,10.57
2022-12-20T16:42:15.205Z,10.77
2022-12-20T16:44:45.254Z,11.20
2022-12-20T16:47:13.637Z,11.80
2022-12-20T16:49:47.281Z,12.52
2022-12-20T16:52:19.956Z,12.90
2022-12-20T16:54:47.656Z,11.68
2022-12-20T16:57:15.357Z,10.80
2022-12-20T16:59:43.032Z,12.40
2022-12-20T17:02:31.180Z,12.63
2022-12-20T17:04:59.941Z,13.20
2022-12-20T17:07:27.906Z,13.95
2022-12-20T17:10:10.842Z,12.48
2022-12-20T17:12:38.599Z,13.95
2022-12-20T17:15:06.862Z,13.35
2022-12-20T17:17:34.500Z,13.77
2022-12-20T17:20:02.153Z,13.15
2022-12-20T17:22:29.900Z,15.10
2022-12-20T17:24:57.545Z,14.20
2022-12-20T17:27:25.235Z,14.45
2022-12-20T17:29:52.903Z,13.60
2022-12-20T17:32:23.116Z,16.00
2022-12-20T17:34:51.309Z,14.27
2022-12-20T17:37:19.059Z,14.02
2022-12-20T17:39:47.359Z,14.63
2022-12-20T17:42:15.816Z,16.00
2022-12-20T17:44:44.133Z,15.45
2022-12-20T17:47:12.410Z,15.55
2022-12-20T17:49:40.282Z,14.90
2022-12-20T17:52:14.327Z,15.77
2022-12-20T17:54:42.016Z,14.80
2022-12-20T17:57:16.646Z,15.35
2022-12-20T17:59:45.037Z,15.75
2022-12-20T18:02:24.030Z,16.30
2022-12-20T18:04:52.642Z,16.65
2022-12-20T18:07:20.500Z,16.20
2022-12-20T18:09:49.080Z,15.45
2022-12-20T18:12:17.427Z,14.60
2022-12-20T18:14:45.028Z,16.98
2022-12-20T18:17:12.613Z,17.42
2022-12-20T18:19:40.799Z,17.98
2022-12-20T18:22:08.407Z,17.75
2022-12-20T18:24:36.310Z,18.27
2022-12-20T18:27:03.837Z,18.15
2022-12-20T18:29:31.425Z,17.20
2022-12-20T18:31:59.134Z,16.25
2022-12-20T18:34:26.723Z,17.50
2022-12-20T18:36:54.267Z,17.92
2022-12-20T18:39:21.846Z,18.88
2022-12-20T18:41:49.502Z,18.90
2022-12-20T18:44:17.132Z,17.23
2022-12-20T18:46:44.622Z,20.35
2022-12-20T18:49:12.114Z,19.83
2022-12-20T18:51:39.627Z,15.85
2022-12-20T18:54:09.252Z,18.95
2022-12-20T18:56:39.439Z,17.77
2022-12-20T18:59:11.808Z,17.83
2022-12-20T19:01:41.996Z,19.40
2022-12-20T19:04:10.675Z,19.40
2022-12-20T19:06:38.996Z,19.17
2022-12-20T19:09:10.687Z,18.10
2022-12-20T19:11:38.472Z,20.17
2022-12-20T19:14:06.208Z,21.65
2022-12-20T19:16:34.160Z,20.23
2022-12-20T19:19:03.406Z,20.67
2022-12-20T19:21:33.886Z,20.38
2022-12-20T19:24:05.170Z,20.20
2022-12-20T19:26:32.889Z,22.10
2022-12-20T19:29:00.567Z,18.60
2022-12-20T19:31:31.115Z,18.90
2022-12-20T19:34:04.504Z,20.52
2022-12-20T19:36:44.519Z,22.40
2022-12-20T19:39:20.961Z,22.00
2022-12-20T19:44:36.980Z,22.00
2022-12-20T19:47:04.611Z,22.33
2022-12-20T19:49:32.179Z,22.25
2022-12-20T19:51:59.760Z,22.20
2022-12-20T19:54:27.337Z,23.52
2022-12-20T19:56:54.870Z,23.27
2022-12-20T19:59:22.480Z,21.08
2022-12-20T20:01:50.076Z,22.40
2022-12-20T20:04:17.725Z,20.70
2022-12-20T20:06:45.326Z,25.13
2022-12-20T20:09:12.881Z,23.40
2022-12-20T20:11:40.423Z,22.13
2022-12-20T20:14:09.434Z,24.40
2022-12-20T20:16:38.422Z,25.17
2022-12-20T20:19:06.080Z,24.42
2022-12-20T20:21:36.220Z,24.33
2022-12-20T20:24:03.815Z,25.10
2022-12-20T20:26:31.831Z,25.48
2022-12-20T20:29:01.974Z,25.00
2022-12-20T20:31:29.816Z,24.95
2022-12-20T20:33:59.055Z,26.17
2022-12-20T20:36:26.959Z,26.58
2022-12-20T20:38:54.993Z,26.02
2022-12-20T20:41:23.388Z,26.13
2022-12-20T20:43:51.549Z,25.65
2022-12-20T20:46:19.587Z,29.13
2022-12-20T20:48:48.001Z,27.73
2022-12-20T20:51:15.670Z,28.55
2022-12-20T20:53:43.595Z,27.08
2022-12-20T20:56:11.767Z,28.77
2022-12-20T20:58:39.918Z,26.02
2022-12-20T21:01:09.423Z,26.42
2022-12-20T21:03:38.228Z,26.55
2022-12-20T21:08:55.899Z,28.77
2022-12-20T21:11:24.043Z,23.83
2022-12-20T21:13:51.995Z,28.13
2022-12-20T21:16:22.182Z,27.70
2022-12-20T21:18:53.947Z,26.00
2022-12-20T21:21:21.615Z,26.73
2022-12-20T21:23:49.452Z,27.38
2022-12-20T21:26:19.367Z,27.05
2022-12-20T21:28:47.499Z,26.92
2022-12-20T21:31:17.996Z,27.23
2022-12-20T21:33:46.227Z,27.48
2022-12-20T21:36:16.662Z,26.88
2022-12-20T21:38:53.946Z,26.85
2022-12-20T21:41:24.082Z,26.35
2022-12-20T21:43:53.128Z,26.90
2022-12-20T21:46:21.665Z,27.90
2022-12-20T21:48:49.445Z,26.33
2022-12-20T21:51:22.070Z,29.70
2022-12-20T21:53:52.201Z,25.75
2022-12-20T21:56:20.748Z,27.23
2022-12-20T21:58:48.667Z,28.42
2022-12-20T22:01:20.388Z,26.65
2022-12-20T22:03:54.559Z,27.55
2022-12-20T22:06:22.867Z,30.17
2022-12-20T22:08:51.000Z,27.95
2022-12-20T22:11:19.505Z,27.10
2022-12-20T22:13:48.085Z,26.85
2022-12-20T22:16:18.643Z,28.05
2022-12-20T22:18:50.879Z,27.80
2022-12-20T22:21:20.218Z,26.40
2022-12-20T22:23:48.043Z,25.25
2022-12-20T22:26:19.861Z,27.23
2022-12-20T22:28:55.722Z,23.98
2022-12-20T22:31:24.184Z,23.60
2022-12-20T22:33:53.049Z,26.70
2022-12-20T22:36:21.153Z,25.10
2022-12-20T22:38:48.753Z,24.08
2022-12-20T22:41:22.379Z,25.75
2022-12-20T22:43:50.405Z,27.50
2022-12-20T22:46:19.319Z,28.02
2022-12-20T22:48:47.794Z,27.77
2022-12-20T22:51:20.671Z,27.77
2022-12-20T22:53:49.193Z,29.40
2022-12-20T22:56:19.554Z,26.42
2022-12-20T22:58:47.200Z,29.48
2022-12-20T23:01:16.230Z,26.90
2022-12-20T23:03:44.525Z,23.75
2022-12-20T23:06:18.562Z,26.92
2022-12-20T23:08:46.643Z,27.20
2022-12-20T23:11:40.867Z,25.30
2022-12-20T23:14:39.932Z,26.63
2022-12-20T23:17:09.590Z,25.70
2022-12-20T23:19:51.319Z,24.77
2022-12-20T23:22:36.966Z,24.23
2022-12-20T23:25:22.672Z,25.08
2022-12-20T23:27:51.120Z,23.42
2022-12-20T23:30:22.341Z,22.70
2022-12-20T23:32:50.309Z,23.38
2022-12-20T23:35:20.080Z,25.33
2022-12-20T23:37:48.683Z,25.98
2022-12-20T23:40:17.306Z,25.27
2022-12-20T23:42:45.677Z,24.92
2022-12-20T23:45:13.292Z,25.83
2022-12-20T23:47:40.842Z,27.88
2022-12-20T23:50:08.946Z,26.20
2022-12-20T23:52:36.767Z,22.73
2022-12-20T23:55:04.708Z,25.52
2022-12-20T23:57:33.135Z,22.52
